Time;durP1;ratioP1;P1;durP2;ratioP2;P2;SDS_P1;SDS_P2;PMS_P1;PMS_P2;Temp;Humidity;BMP_temperature;BMP_pressure;BME280_temperature;BME280_humidity;BME280_pressure;Samples;Min_cycle;Max_cycle;Signal;HPM_P1;HPM_P2
2023/03/09 00:05:40;;;;;;;0.93;0.57;;;9.80;99.90;;;;;;4967610;28;20495;-68
2023/03/09 00:12:09;;;;;;;2.00;0.88;;;9.80;99.90;;;;;;4879821;29;20750;-69
2023/03/09 00:14:34;;;;;;;2.15;0.75;;;9.80;99.90;;;;;;4896069;29;20075;-69
2023/03/09 00:17:00;;;;;;;0.90;0.52;;;9.80;99.90;;;;;;4889254;29;20512;-69
2023/03/09 00:19:30;;;;;;;1.23;0.65;;;9.80;99.90;;;;;;4895793;29;20044;-69
2023/03/09 00:21:57;;;;;;;0.45;0.25;;;9.80;99.90;;;;;;4888956;29;20037;-69
2023/03/09 00:24:26;;;;;;;1.20;0.60;;;9.80;99.90;;;;;;4895886;29;20041;-69
2023/03/09 00:26:56;;;;;;;3.30;0.90;;;9.80;99.90;;;;;;4888994;29;22321;-69
2023/03/09 00:29:24;;;;;;;3.50;1.38;;;9.80;99.90;;;;;;4895616;29;20409;-70
2023/03/09 00:31:50;;;;;;;1.85;0.70;;;9.80;99.90;;;;;;4888911;29;20048;-69
2023/03/09 00:34:16;;;;;;;2.67;1.20;;;9.80;99.90;;;;;;4894740;29;20025;-70
2023/03/09 00:36:42;;;;;;;2.22;1.15;;;9.90;99.90;;;;;;4890221;29;20033;-69
2023/03/09 00:39:09;;;;;;;6.28;1.25;;;9.90;99.90;;;;;;4894311;29;20040;-70
2023/03/09 00:41:35;;;;;;;1.33;0.50;;;9.90;99.90;;;;;;4890860;29;20029;-70
2023/03/09 00:44:03;;;;;;;1.85;0.57;;;9.80;99.90;;;;;;4888756;29;20399;-69
2023/03/09 00:46:30;;;;;;;3.20;0.65;;;9.80;99.90;;;;;;4951199;28;20028;-69
2023/03/09 00:48:56;;;;;;;3.45;0.88;;;9.70;99.90;;;;;;4966584;28;20387;-70
2023/03/09 00:51:24;;;;;;;0.98;0.57;;;9.80;99.90;;;;;;4951710;28;20042;-69
2023/03/09 00:53:50;;;;;;;2.08;0.93;;;9.80;99.90;;;;;;4951355;29;20471;-69
2023/03/09 00:56:21;;;;;;;0.70;0.52;;;9.70;99.90;;;;;;4952659;29;20484;-69
2023/03/09 00:58:47;;;;;;;;;;;9.70;99.90;;;;;;4951017;28;20027;-69
2023/03/09 01:01:15;;;;;;;0.40;0.28;;;9.70;99.90;;;;;;4967661;28;19993;-69
2023/03/09 01:03:41;;;;;;;0.30;0.28;;;9.70;99.90;;;;;;4964655;28;20027;-69
2023/03/09 01:06:08;;;;;;;0.65;0.40;;;9.70;99.90;;;;;;4952409;28;20042;-69
2023/03/09 01:08:34;;;;;;;3.67;0.90;;;9.70;99.90;;;;;;4963391;28;20032;-69
2023/03/09 01:11:04;;;;;;;5.15;0.60;;;9.70;99.90;;;;;;4936694;29;20031;-68
2023/03/09 01:13:30;;;;;;;1.27;0.80;;;9.70;99.90;;;;;;4962172;28;20038;-69
2023/03/09 01:15:55;;;;;;;0.95;0.80;;;9.70;99.90;;;;;;4945647;29;20567;-69
2023/03/09 01:18:21;;;;;;;1.65;0.68;;;9.60;99.90;;;;;;4941377;28;20392;-69
2023/03/09 01:20:47;;;;;;;1.13;0.50;;;9.60;99.90;;;;;;4948945;28;20035;-69
2023/03/09 01:23:13;;;;;;;0.28;0.28;;;9.60;99.90;;;;;;4954128;29;20055;-68
2023/03/09 01:25:38;;;;;;;0.63;0.60;;;9.60;99.90;;;;;;4954864;28;20035;-69
2023/03/09 01:28:04;;;;;;;1.20;0.45;;;9.60;99.90;;;;;;4945997;28;20034;-69
2023/03/09 01:30:31;;;;;;;0.70;0.30;;;9.70;99.90;;;;;;4952688;29;20066;-69
2023/03/09 01:32:57;;;;;;;1.15;0.60;;;9.80;99.90;;;;;;4960971;28;20057;-69
2023/03/09 01:35:23;;;;;;;1.85;0.80;;;9.80;99.90;;;;;;4954074;28;20532;-69
2023/03/09 01:37:49;;;;;;;3.63;0.70;;;9.90;99.90;;;;;;4960309;28;20038;-69
2023/03/09 01:40:20;;;;;;;2.38;0.30;;;10.10;99.90;;;;;;4953718;28;20395;-69
2023/03/09 01:43:17;;;;;;;1.42;0.20;;;10.10;99.90;;;;;;4946107;28;20046;-69
2023/03/09 01:45:43;;;;;;;2.28;0.43;;;10.10;99.90;;;;;;4956539;28;20043;-69
2023/03/09 01:48:08;;;;;;;0.22;0.15;;;10.10;99.90;;;;;;4945036;29;20261;-69
2023/03/09 01:50:36;;;;;;;0.03;0.03;;;10.10;99.90;;;;;;4980126;23;20046;-69
2023/03/09 01:53:11;;;;;;;0.28;0.22;;;10.10;99.90;;;;;;4992380;28;20027;-70
2023/03/09 01:55:46;;;;;;;0.68;0.22;;;10.10;99.90;;;;;;4990588;28;20061;-70
2023/03/09 01:58:23;;;;;;;0.10;0.03;;;10.00;99.90;;;;;;4991043;28;20528;-70
2023/03/09 02:00:53;;;;;;;0.10;0.10;;;10.00;99.90;;;;;;4989600;28;20196;-69
2023/03/09 02:03:29;;;;;;;0.10;0.10;;;9.90;99.90;;;;;;4972530;28;20122;-70
2023/03/09 02:06:02;;;;;;;0.15;0.13;;;9.90;99.90;;;;;;4965544;28;20043;-70
2023/03/09 02:08:30;;;;;;;0.20;0.10;;;9.80;99.90;;;;;;4966635;28;20055;-70
2023/03/09 02:11:08;;;;;;;0.28;0.22;;;9.80;99.90;;;;;;4964213;28;20025;-70
2023/03/09 02:13:40;;;;;;;0.65;0.35;;;9.80;99.90;;;;;;4981146;28;20030;-70
2023/03/09 02:16:06;;;;;;;0.08;0.08;;;9.80;99.90;;;;;;4984067;28;20123;-69
2023/03/09 02:18:32;;;;;;;1.85;0.50;;;9.70;99.90;;;;;;4978294;28;20038;-69
2023/03/09 02:21:46;;;;;;;3.05;0.80;;;9.70;99.90;;;;;;4975499;28;20031;-69
2023/03/09 02:24:48;;;;;;;0.95;0.50;;;9.70;99.90;;;;;;4977477;28;20161;-70
2023/03/09 02:27:21;;;;;;;1.35;0.82;;;9.70;99.90;;;;;;4981634;28;20064;-70
2023/03/09 02:29:48;;;;;;;0.20;0.17;;;9.70;99.90;;;;;;4987920;28;20034;-70
2023/03/09 02:32:14;;;;;;;0.47;0.32;;;9.70;99.90;;;;;;4981725;28;20073;-70
2023/03/09 02:34:40;;;;;;;1.85;0.50;;;9.60;99.90;;;;;;4989089;28;20034;-70
2023/03/09 02:37:33;;;;;;;0.10;0.10;;;9.60;99.90;;;;;;4979092;28;20097;-71
2023/03/09 02:40:10;;;;;;;2.08;0.25;;;9.60;99.90;;;;;;4988587;28;20043;-70
2023/03/09 02:42:37;;;;;;;0.10;0.10;;;9.80;99.90;;;;;;4979018;28;20074;-71
2023/03/09 02:45:05;;;;;;;0.52;0.25;;;9.80;99.90;;;;;;4985437;28;20224;-71
2023/03/09 02:47:30;;;;;;;0.57;0.30;;;9.80;99.90;;;;;;4983221;28;20189;-71
2023/03/09 02:49:56;;;;;;;0.17;0.17;;;9.70;99.90;;;;;;4988147;28;20125;-71
2023/03/09 02:52:22;;;;;;;0.05;0.05;;;9.70;99.90;;;;;;4982927;28;20026;-72
2023/03/09 02:54:48;;;;;;;0.47;0.20;;;9.70;99.90;;;;;;4988840;28;20034;-71
2023/03/09 02:57:14;;;;;;;0.00;0.00;;;9.80;99.90;;;;;;4980830;28;20030;-71
2023/03/09 02:59:40;;;;;;;0.57;0.50;;;9.80;99.90;;;;;;4989586;28;20026;-71
2023/03/09 03:02:07;;;;;;;0.35;0.35;;;9.70;99.90;;;;;;4980248;28;20394;-72
2023/03/09 03:04:33;;;;;;;0.22;0.08;;;9.80;99.90;;;;;;4991208;28;20041;-72
2023/03/09 03:06:58;;;;;;;1.30;0.75;;;9.70;99.90;;;;;;4978756;28;20031;-72
2023/03/09 03:09:25;;;;;;;0.43;0.28;;;9.70;99.90;;;;;;4990910;28;20390;-72
2023/03/09 03:11:51;;;;;;;0.88;0.60;;;9.70;99.90;;;;;;4980152;28;20027;-71
2023/03/09 03:14:17;;;;;;;0.52;0.10;;;9.70;99.90;;;;;;4990860;28;20390;-72
2023/03/09 03:16:43;;;;;;;0.68;0.30;;;9.70;99.90;;;;;;4977877;28;20030;-71
2023/03/09 03:19:09;;;;;;;3.47;0.50;;;9.70;99.90;;;;;;4989711;28;20034;-71
2023/03/09 03:21:35;;;;;;;0.57;0.25;;;9.70;99.90;;;;;;4982312;28;20105;-72
2023/03/09 03:24:00;;;;;;;0.38;0.38;;;9.60;99.90;;;;;;4988944;28;20606;-72
2023/03/09 03:26:26;;;;;;;0.90;0.30;;;9.60;99.90;;;;;;4983697;28;20031;-72
2023/03/09 03:28:52;;;;;;;0.03;0.03;;;9.60;99.90;;;;;;4987513;28;20042;-71
2023/03/09 03:31:18;;;;;;;3.40;0.68;;;9.60;99.90;;;;;;4984224;28;20101;-71
2023/03/09 03:33:43;;;;;;;4.38;0.30;;;9.70;99.90;;;;;;4986345;28;20084;-72
2023/03/09 03:36:09;;;;;;;0.10;0.10;;;9.60;99.90;;;;;;4985704;28;20046;-72
2023/03/09 03:38:35;;;;;;;0.40;0.22;;;9.60;99.90;;;;;;4985378;28;20038;-72
2023/03/09 03:41:01;;;;;;;0.22;0.22;;;9.60;99.90;;;;;;4986405;28;20041;-71
2023/03/09 03:43:26;;;;;;;1.38;0.17;;;9.70;99.90;;;;;;4984246;28;20068;-71
2023/03/09 03:45:52;;;;;;;0.85;0.40;;;9.80;99.90;;;;;;4987411;28;20034;-71
2023/03/09 03:48:18;;;;;;;1.25;0.70;;;9.90;99.90;;;;;;4982841;28;20045;-71
2023/03/09 03:50:44;;;;;;;0.50;0.43;;;10.00;99.90;;;;;;4987569;28;20026;-71
2023/03/09 03:53:09;;;;;;;1.25;0.60;;;10.00;99.90;;;;;;4982731;28;20038;-71
2023/03/09 03:55:35;;;;;;;0.70;0.43;;;10.10;99.90;;;;;;4984990;28;20022;-69
2023/03/09 03:58:01;;;;;;;0.38;0.30;;;10.10;99.90;;;;;;4982774;28;20030;-69
2023/03/09 04:00:27;;;;;;;0.55;0.43;;;10.10;99.90;;;;;;4987828;28;20026;-69
2023/03/09 04:02:52;;;;;;;6.05;1.17;;;10.10;99.90;;;;;;4970352;28;20442;-69
2023/03/09 04:05:18;;;;;;;0.70;0.40;;;10.10;99.90;;;;;;4965298;28;20030;-69
2023/03/09 04:07:44;;;;;;;0.70;0.50;;;10.10;99.90;;;;;;4980873;28;20048;-69
2023/03/09 04:10:10;;;;;;;1.02;0.60;;;10.20;99.90;;;;;;4989423;28;20675;-70
2023/03/09 04:12:36;;;;;;;2.75;0.88;;;10.10;99.90;;;;;;4983561;28;20029;-70
2023/03/09 04:15:02;;;;;;;1.13;0.52;;;10.10;99.90;;;;;;4975469;28;20027;-70
2023/03/09 04:17:28;;;;;;;4.97;1.30;;;10.20;99.90;;;;;;4985701;28;20113;-71
2023/03/09 04:19:53;;;;;;;1.65;0.40;;;10.10;99.90;;;;;;4984621;28;20482;-71
2023/03/09 04:22:19;;;;;;;1.77;0.70;;;10.00;99.90;;;;;;4986001;28;20026;-71
2023/03/09 04:24:48;;;;;;;0.75;0.43;;;10.20;99.90;;;;;;4991904;28;20441;-70
2023/03/09 04:27:14;;;;;;;1.15;0.70;;;10.30;99.90;;;;;;4985315;28;20041;-72
2023/03/09 04:29:40;;;;;;;0.52;0.40;;;10.20;99.90;;;;;;4992103;28;20030;-71
2023/03/09 04:32:06;;;;;;;0.13;0.13;;;10.30;99.90;;;;;;4981073;28;20019;-71
2023/03/09 04:34:32;;;;;;;0.52;0.50;;;10.40;99.90;;;;;;4993667;28;20081;-71
2023/03/09 04:36:58;;;;;;;4.28;0.50;;;10.30;99.90;;;;;;4982672;28;20045;-71
2023/03/09 04:39:24;;;;;;;0.13;0.13;;;10.40;99.90;;;;;;4992253;28;20039;-70
2023/03/09 04:41:50;;;;;;;3.25;0.60;;;10.40;99.90;;;;;;4982789;28;20057;-71
2023/03/09 04:44:16;;;;;;;0.60;0.50;;;10.30;99.90;;;;;;4993271;28;20054;-71
2023/03/09 04:46:41;;;;;;;0.45;0.38;;;10.40;99.90;;;;;;4982889;28;20027;-69
2023/03/09 04:49:07;;;;;;;4.03;1.42;;;10.40;99.90;;;;;;4991812;28;20186;-70
2023/03/09 04:51:33;;;;;;;1.95;0.55;;;10.50;99.90;;;;;;4983347;28;20101;-70
2023/03/09 04:53:58;;;;;;;0.75;0.40;;;10.40;99.90;;;;;;4990533;28;20390;-69
2023/03/09 04:56:24;;;;;;;0.43;0.20;;;10.40;99.90;;;;;;4980867;28;20033;-69
2023/03/09 04:58:50;;;;;;;0.93;0.60;;;10.40;99.90;;;;;;4976975;28;20033;-69
2023/03/09 05:01:16;;;;;;;0.68;0.50;;;10.40;99.90;;;;;;4980961;28;20031;-69
2023/03/09 05:03:41;;;;;;;10.38;1.73;;;10.40;99.90;;;;;;4987788;28;20031;-69
2023/03/09 05:06:07;;;;;;;0.75;0.50;;;10.40;99.90;;;;;;4988102;28;20034;-70
2023/03/09 05:08:33;;;;;;;3.47;0.90;;;10.30;99.90;;;;;;4982200;28;20522;-69
2023/03/09 05:10:59;;;;;;;2.28;1.23;;;10.30;99.90;;;;;;4975364;28;20039;-69
2023/03/09 05:13:26;;;;;;;0.65;0.45;;;10.40;99.90;;;;;;4988276;28;20054;-69
2023/03/09 05:15:51;;;;;;;0.73;0.38;;;10.40;99.90;;;;;;4980922;28;20030;-69
2023/03/09 05:18:17;;;;;;;2.50;0.93;;;10.40;99.90;;;;;;4971698;28;20114;-69
2023/03/09 05:20:43;;;;;;;2.47;0.80;;;10.40;99.90;;;;;;4977480;28;20059;-70
2023/03/09 05:23:09;;;;;;;0.60;0.45;;;10.30;99.90;;;;;;4984523;28;20405;-71
2023/03/09 05:25:35;;;;;;;4.85;1.02;;;10.40;99.90;;;;;;4989930;28;20038;-71
2023/03/09 05:28:01;;;;;;;5.30;1.17;;;10.50;99.90;;;;;;4984571;28;20027;-71
2023/03/09 05:30:26;;;;;;;1.15;0.73;;;10.50;99.90;;;;;;4989327;28;20109;-70
2023/03/09 05:32:52;;;;;;;4.65;0.80;;;10.50;99.90;;;;;;4984272;28;20042;-70
2023/03/09 05:35:19;;;;;;;1.27;0.60;;;10.40;99.90;;;;;;4989530;28;20038;-71
2023/03/09 05:37:46;;;;;;;3.00;0.77;;;10.50;99.90;;;;;;4983729;28;20026;-71
2023/03/09 05:40:14;;;;;;;4.63;0.55;;;10.50;99.90;;;;;;4958049;28;20421;-71
2023/03/09 05:42:41;;;;;;;1.60;0.55;;;10.60;99.90;;;;;;4991162;28;20026;-71
2023/03/09 05:45:08;;;;;;;1.55;0.60;;;10.50;99.90;;;;;;4989513;28;20074;-71
2023/03/09 05:47:35;;;;;;;7.80;1.05;;;10.40;99.90;;;;;;4990809;28;20124;-71
2023/03/09 05:50:01;;;;;;;0.70;0.52;;;10.40;99.90;;;;;;4988667;28;20030;-71
2023/03/09 05:52:27;;;;;;;0.77;0.30;;;10.40;99.90;;;;;;4984231;28;20037;-71
2023/03/09 05:54:53;;;;;;;0.82;0.20;;;10.40;99.90;;;;;;4977296;28;20027;-70
2023/03/09 05:57:18;;;;;;;10.60;1.80;;;10.40;99.90;;;;;;4975916;28;20022;-70
2023/03/09 05:59:47;;;;;;;1.25;0.45;;;10.50;99.90;;;;;;4981172;28;20049;-69
2023/03/09 06:02:13;;;;;;;4.57;0.90;;;10.30;99.90;;;;;;4979723;28;20419;-71
2023/03/09 06:04:39;;;;;;;4.82;1.02;;;10.20;99.90;;;;;;4970422;28;20039;-74
2023/03/09 06:07:04;;;;;;;5.38;1.88;;;10.20;99.90;;;;;;4981174;28;20031;-71
2023/03/09 06:09:30;;;;;;;7.57;0.85;;;10.10;99.90;;;;;;4989052;28;20105;-71
2023/03/09 06:11:56;;;;;;;4.95;1.20;;;10.00;99.90;;;;;;4981428;28;20053;-72
2023/03/09 06:14:22;;;;;;;1.48;0.70;;;10.10;99.90;;;;;;4971966;28;20436;-71
2023/03/09 06:16:48;;;;;;;1.25;0.85;;;10.10;99.90;;;;;;4980007;28;20058;-71
2023/03/09 06:19:13;;;;;;;8.02;1.17;;;10.10;99.90;;;;;;4990725;28;20030;-72
2023/03/09 06:21:39;;;;;;;13.57;1.25;;;10.10;99.90;;;;;;4979191;28;20026;-71
2023/03/09 06:24:05;;;;;;;0.93;0.40;;;10.10;99.90;;;;;;4990057;28;20029;-71
2023/03/09 06:26:31;;;;;;;2.20;0.95;;;10.10;99.90;;;;;;4979151;28;20035;-72
2023/03/09 06:28:57;;;;;;;0.95;0.38;;;10.10;99.90;;;;;;4988513;28;20093;-72
2023/03/09 06:31:23;;;;;;;4.65;0.88;;;10.10;99.90;;;;;;4980402;28;20085;-72
2023/03/09 06:33:49;;;;;;;3.63;1.20;;;10.10;99.90;;;;;;4987766;28;20112;-71
2023/03/09 06:36:17;;;;;;;3.45;0.57;;;10.10;99.90;;;;;;4982285;28;20074;-71
2023/03/09 06:38:43;;;;;;;12.40;0.75;;;10.10;99.90;;;;;;4986657;28;20093;-71
2023/03/09 06:41:09;;;;;;;6.15;1.30;;;10.10;99.90;;;;;;4961258;28;20053;-71
2023/03/09 06:43:36;;;;;;;1.40;0.70;;;10.10;99.90;;;;;;4985743;28;20034;-70
2023/03/09 06:46:01;;;;;;;2.45;0.63;;;10.20;99.90;;;;;;4984027;28;20037;-70
2023/03/09 06:48:27;;;;;;;0.70;0.30;;;10.10;99.90;;;;;;4976767;28;20094;-75
2023/03/09 06:50:53;;;;;;;3.60;0.75;;;10.10;99.90;;;;;;4976527;28;20034;-75
2023/03/09 06:53:18;;;;;;;5.35;1.02;;;10.10;99.90;;;;;;4968975;28;20030;-75
2023/03/09 06:55:44;;;;;;;2.03;0.75;;;10.10;99.90;;;;;;4978691;28;20438;-75
2023/03/09 06:58:10;;;;;;;3.45;0.65;;;10.10;99.90;;;;;;4986090;28;20394;-68
2023/03/09 07:00:38;;;;;;;1.23;0.77;;;10.10;99.90;;;;;;4980026;28;20050;-80
2023/03/09 07:03:06;;;;;;;4.70;1.30;;;10.10;99.90;;;;;;4971430;28;20035;-74
2023/03/09 07:05:32;;;;;;;0.80;0.45;;;10.10;99.90;;;;;;4979812;28;20078;-75
2023/03/09 07:07:58;;;;;;;2.03;0.80;;;10.10;99.90;;;;;;4988729;28;20030;-71
2023/03/09 07:10:23;;;;;;;10.60;1.05;;;10.10;99.90;;;;;;4979164;28;20426;-74
2023/03/09 07:12:49;;;;;;;12.40;1.05;;;10.10;99.90;;;;;;4978082;28;20118;-75
2023/03/09 07:15:16;;;;;;;2.47;0.63;;;10.10;99.90;;;;;;4978784;28;20026;-74
2023/03/09 07:17:42;;;;;;;4.05;0.88;;;10.10;99.90;;;;;;4969793;28;20050;-79
2023/03/09 07:20:10;;;;;;;3.58;1.02;;;10.20;99.90;;;;;;4977558;28;20034;-78
2023/03/09 07:22:36;;;;;;;1.02;0.55;;;10.20;99.90;;;;;;4986021;28;20034;-77
2023/03/09 07:25:01;;;;;;;1.75;0.50;;;10.20;99.90;;;;;;4979292;28;20034;-77
2023/03/09 07:27:27;;;;;;;5.20;0.60;;;10.20;99.90;;;;;;4978323;28;20561;-77
2023/03/09 07:29:53;;;;;;;6.03;0.73;;;10.30;99.90;;;;;;4978986;28;20028;-77
2023/03/09 07:32:19;;;;;;;5.05;1.42;;;10.30;99.90;;;;;;4982921;28;20504;-77
2023/03/09 07:34:45;;;;;;;5.88;0.90;;;10.40;99.90;;;;;;4976727;28;20034;-77
2023/03/09 07:37:11;;;;;;;1.65;0.63;;;10.30;99.90;;;;;;4982641;28;20117;-77
2023/03/09 07:39:37;;;;;;;3.05;0.80;;;10.40;99.90;;;;;;4963917;28;20027;-76
2023/03/09 07:42:03;;;;;;;3.63;0.68;;;10.50;99.90;;;;;;4977852;28;20118;-76
2023/03/09 07:44:29;;;;;;;3.28;0.75;;;10.40;99.90;;;;;;4979425;28;20054;-77
2023/03/09 07:46:55;;;;;;;2.42;0.85;;;10.40;99.90;;;;;;4983637;28;20035;-76
2023/03/09 07:49:20;;;;;;;4.35;1.15;;;10.40;99.90;;;;;;4978718;28;20097;-77
2023/03/09 07:51:46;;;;;;;1.75;0.77;;;10.40;99.90;;;;;;5004475;23;20139;-75
2023/03/09 07:54:13;;;;;;;3.45;0.65;;;10.30;99.90;;;;;;4983140;28;20711;-73
2023/03/09 07:56:38;;;;;;;0.65;0.45;;;10.30;99.90;;;;;;4958961;28;20038;-74
2023/03/09 07:59:04;;;;;;;0.50;0.30;;;10.30;99.90;;;;;;4993381;28;20046;-74
2023/03/09 08:01:30;;;;;;;0.95;0.43;;;10.20;99.90;;;;;;4995385;28;20023;-74
2023/03/09 08:03:56;;;;;;;2.75;0.88;;;10.20;99.90;;;;;;5010469;28;20062;-76
2023/03/09 08:06:22;;;;;;;6.13;0.60;;;10.20;99.90;;;;;;4996418;28;20112;-76
2023/03/09 08:08:48;;;;;;;2.88;0.47;;;10.30;99.90;;;;;;4993063;28;20128;-76
2023/03/09 08:11:14;;;;;;;4.50;1.13;;;10.40;99.90;;;;;;4994090;28;20097;-77
2023/03/09 08:13:40;;;;;;;3.25;1.15;;;10.40;99.90;;;;;;4994858;28;20177;-78
2023/03/09 08:16:08;;;;;;;5.15;0.77;;;10.40;99.90;;;;;;4994409;28;20447;-77
2023/03/09 08:18:34;;;;;;;2.47;1.00;;;10.50;99.90;;;;;;4988932;28;20042;-79
2023/03/09 08:21:10;;;;;;;4.15;0.77;;;10.50;99.90;;;;;;4994031;28;20027;-80
2023/03/09 08:23:39;;;;;;;2.75;0.57;;;10.50;99.90;;;;;;5001120;28;20101;-81
2023/03/09 08:26:07;;;;;;;3.55;0.70;;;10.50;99.90;;;;;;4996781;28;20486;-79
2023/03/09 08:28:32;;;;;;;9.07;0.68;;;10.60;99.90;;;;;;5000384;28;20030;-78
2023/03/09 08:30:58;;;;;;;1.60;0.50;;;10.60;99.90;;;;;;4993908;28;20027;-80
2023/03/09 08:33:24;;;;;;;2.70;0.35;;;10.60;99.90;;;;;;4988291;28;20022;-77
2023/03/09 08:35:50;;;;;;;0.70;0.40;;;10.70;99.90;;;;;;5002860;28;20097;-77
2023/03/09 08:38:16;;;;;;;3.35;0.73;;;10.80;99.90;;;;;;4995252;28;20105;-78
2023/03/09 08:40:43;;;;;;;0.75;0.45;;;10.80;99.90;;;;;;5003897;28;20034;-77
2023/03/09 08:43:09;;;;;;;0.40;0.30;;;10.90;99.90;;;;;;4996257;28;20554;-78
2023/03/09 08:45:37;;;;;;;2.30;0.57;;;10.80;99.90;;;;;;5003294;28;20038;-79
2023/03/09 08:48:03;;;;;;;8.82;2.10;;;10.80;99.90;;;;;;4996087;28;20124;-76
2023/03/09 08:50:29;;;;;;;1.08;0.50;;;10.80;99.90;;;;;;4992861;28;20459;-76
2023/03/09 08:52:55;;;;;;;4.82;0.30;;;10.80;99.90;;;;;;4991375;28;20030;-79
2023/03/09 08:55:21;;;;;;;1.90;0.90;;;10.80;99.90;;;;;;4991245;28;20057;-79
2023/03/09 08:57:47;;;;;;;1.10;0.40;;;10.80;99.90;;;;;;4986337;28;20045;-77
2023/03/09 09:00:15;;;;;;;5.28;0.40;;;10.80;99.90;;;;;;4992546;28;20038;-77
2023/03/09 09:02:41;;;;;;;1.92;0.73;;;10.90;99.90;;;;;;4989319;28;20057;-75
2023/03/09 09:05:08;;;;;;;3.35;0.60;;;11.00;99.90;;;;;;4999658;28;20026;-76
2023/03/09 09:07:34;;;;;;;0.95;0.30;;;11.00;99.90;;;;;;4996890;28;20038;-77
2023/03/09 09:10:00;;;;;;;0.63;0.45;;;11.10;99.90;;;;;;4992182;28;20050;-76
2023/03/09 09:12:27;;;;;;;5.20;1.00;;;11.20;99.90;;;;;;4992294;28;20437;-76
2023/03/09 09:14:54;;;;;;;0.45;0.25;;;11.10;99.90;;;;;;4999608;28;20057;-76
2023/03/09 09:17:20;;;;;;;2.10;0.80;;;11.10;99.90;;;;;;4996127;28;20026;-76
2023/03/09 09:19:46;;;;;;;3.17;0.40;;;11.10;99.90;;;;;;4991875;28;20042;-75
2023/03/09 09:22:13;;;;;;;15.65;1.67;;;11.20;99.90;;;;;;4991876;28;20042;-76
2023/03/09 09:24:39;;;;;;;4.05;0.52;;;11.20;99.90;;;;;;4982961;28;20033;-74
2023/03/09 09:27:07;;;;;;;1.02;0.30;;;11.30;99.90;;;;;;5001345;28;20030;-76
2023/03/09 09:29:36;;;;;;;0.65;0.57;;;11.30;99.90;;;;;;4992075;28;20064;-76
2023/03/09 09:32:08;;;;;;;3.65;0.52;;;11.30;99.90;;;;;;4990362;28;20058;-77
2023/03/09 09:34:34;;;;;;;3.90;0.90;;;11.30;99.90;;;;;;4991243;28;20037;-76
2023/03/09 09:37:02;;;;;;;2.28;0.68;;;11.30;99.90;;;;;;4991737;28;20037;-76
2023/03/09 09:39:29;;;;;;;0.50;0.32;;;11.50;99.90;;;;;;4992026;28;20057;-74
2023/03/09 09:42:03;;;;;;;10.07;0.82;;;11.40;99.90;;;;;;5003621;28;20037;-75
2023/03/09 09:44:42;;;;;;;2.75;0.90;;;11.40;99.90;;;;;;4991898;28;20053;-74
2023/03/09 09:47:23;;;;;;;4.03;1.40;;;11.40;99.90;;;;;;5004922;28;20030;-74
2023/03/09 09:49:52;;;;;;;3.42;0.57;;;11.40;99.90;;;;;;4990671;28;20032;-74
2023/03/09 09:52:49;;;;;;;1.80;0.68;;;11.40;99.90;;;;;;4974921;28;20550;-74
2023/03/09 09:55:28;;;;;;;3.85;0.75;;;11.40;99.90;;;;;;4991807;28;20035;-74
2023/03/09 09:58:03;;;;;;;4.32;0.88;;;11.50;99.90;;;;;;4988163;28;20053;-74
2023/03/09 10:00:50;;;;;;;4.28;0.57;;;11.50;99.90;;;;;;4992429;28;20034;-74
2023/03/09 10:03:20;;;;;;;9.95;0.85;;;11.50;99.90;;;;;;4990235;28;20040;-74
2023/03/09 10:06:08;;;;;;;3.72;0.70;;;11.60;99.90;;;;;;4998331;28;20026;-75
2023/03/09 10:09:06;;;;;;;5.47;1.20;;;11.50;99.90;;;;;;4994577;28;20117;-74
2023/03/09 10:11:43;;;;;;;3.95;0.77;;;11.60;99.90;;;;;;4986353;28;20030;-74
2023/03/09 10:14:38;;;;;;;7.30;0.93;;;11.50;99.90;;;;;;4974060;28;20118;-74
2023/03/09 10:17:27;;;;;;;2.25;0.88;;;11.40;99.90;;;;;;4991383;28;20026;-74
2023/03/09 10:19:57;;;;;;;1.48;0.55;;;11.60;99.90;;;;;;4990321;28;20433;-74
2023/03/09 10:22:26;;;;;;;1.27;0.65;;;11.60;99.90;;;;;;4990616;28;20101;-74
2023/03/09 10:24:55;;;;;;;5.53;0.90;;;11.60;99.90;;;;;;4991528;28;20027;-74
2023/03/09 10:27:20;;;;;;;1.52;0.68;;;11.70;99.90;;;;;;4976113;28;20061;-74
2023/03/09 10:30:01;;;;;;;4.45;0.90;;;11.70;99.90;;;;;;4990727;28;20136;-74
2023/03/09 10:33:00;;;;;;;2.33;1.02;;;11.80;99.90;;;;;;4976947;28;20030;-75
2023/03/09 10:35:58;;;;;;;2.83;0.30;;;11.80;99.90;;;;;;4999552;28;20031;-75
2023/03/09 10:38:23;;;;;;;0.60;0.38;;;11.90;99.90;;;;;;4990796;28;20097;-75
2023/03/09 10:40:56;;;;;;;1.55;0.57;;;11.80;99.90;;;;;;4990519;28;20041;-75
2023/03/09 10:43:32;;;;;;;4.88;0.60;;;11.90;99.90;;;;;;4981727;28;20033;-74
2023/03/09 10:46:21;;;;;;;3.60;0.52;;;11.90;99.90;;;;;;4989817;28;20475;-74
2023/03/09 10:48:49;;;;;;;6.35;1.00;;;12.10;99.90;;;;;;4990153;28;20605;-74
2023/03/09 10:51:26;;;;;;;1.23;0.50;;;12.10;99.90;;;;;;4990610;28;20042;-75
2023/03/09 10:53:56;;;;;;;3.30;0.75;;;12.10;99.90;;;;;;4994133;28;20029;-74
2023/03/09 10:56:28;;;;;;;1.10;0.45;;;12.10;99.90;;;;;;4998431;28;20036;-74
2023/03/09 10:59:06;;;;;;;7.72;0.60;;;12.00;99.90;;;;;;4996636;28;20037;-75
2023/03/09 11:01:37;;;;;;;0.38;0.35;;;12.00;99.90;;;;;;4990677;28;20117;-75
2023/03/09 11:04:32;;;;;;;0.50;0.40;;;11.80;99.90;;;;;;4995073;28;20037;-74
2023/03/09 11:07:22;;;;;;;0.68;0.30;;;11.90;99.90;;;;;;4990275;28;20030;-75
2023/03/09 11:09:52;;;;;;;4.40;1.45;;;12.00;99.90;;;;;;4989541;28;20034;-75
2023/03/09 11:12:34;;;;;;;0.55;0.17;;;12.00;99.90;;;;;;4984941;28;20086;-74
2023/03/09 11:15:22;;;;;;;;;;;12.00;99.90;;;;;;4989676;28;20113;-74
2023/03/09 11:17:48;;;;;;;4.35;0.82;;;12.10;99.90;;;;;;4992203;28;19910;-75
2023/03/09 11:20:30;;;;;;;3.40;0.63;;;12.00;99.90;;;;;;4994203;28;20493;-75
2023/03/09 11:23:09;;;;;;;1.45;0.40;;;12.10;99.90;;;;;;4994276;28;20030;-75
2023/03/09 11:26:00;;;;;;;3.17;1.15;;;12.20;99.90;;;;;;4998752;28;20026;-74
2023/03/09 11:29:08;;;;;;;0.65;0.30;;;12.30;99.90;;;;;;4994033;28;20092;-74
2023/03/09 11:31:38;;;;;;;0.30;0.13;;;12.60;99.90;;;;;;4988573;28;20042;-74
2023/03/09 11:34:15;;;;;;;1.98;0.68;;;12.80;99.90;;;;;;4994366;28;20022;-75
2023/03/09 11:36:50;;;;;;;0.82;0.45;;;13.20;99.90;;;;;;5007631;28;20037;-74
2023/03/09 11:39:33;;;;;;;1.55;0.45;;;13.30;99.90;;;;;;5000513;28;20056;-74
2023/03/09 11:42:17;;;;;;;0.10;0.10;;;13.00;99.90;;;;;;5007627;28;20092;-74
2023/03/09 11:44:46;;;;;;;1.30;0.30;;;13.00;99.90;;;;;;4993086;28;20037;-74
2023/03/09 11:47:30;;;;;;;1.50;0.45;;;13.00;99.90;;;;;;5007838;28;20041;-72
2023/03/09 11:50:04;;;;;;;1.65;0.50;;;13.00;99.90;;;;;;4992513;28;20027;-68
2023/03/09 11:52:39;;;;;;;2.28;0.38;;;13.00;99.90;;;;;;4992400;28;20035;-69
2023/03/09 11:55:17;;;;;;;0.80;0.63;;;13.00;99.90;;;;;;4992726;28;20034;-67
2023/03/09 11:57:48;;;;;;;2.05;0.43;;;13.00;99.90;;;;;;4984887;28;20062;-67
2023/03/09 12:00:19;;;;;;;5.28;0.75;;;13.00;99.90;;;;;;4992205;28;20846;-69
2023/03/09 12:03:15;;;;;;;2.85;0.60;;;13.20;99.90;;;;;;4992248;28;20516;-69
2023/03/09 12:06:04;;;;;;;2.75;0.57;;;14.00;99.90;;;;;;4991387;28;20033;-71
2023/03/09 12:08:41;;;;;;;1.10;0.73;;;13.50;99.90;;;;;;4993137;28;20490;-69
2023/03/09 12:12:01;;;;;;;1.30;0.30;;;13.30;99.90;;;;;;4993385;28;20533;-68
2023/03/09 12:14:38;;;;;;;2.83;0.30;;;13.50;99.90;;;;;;4975358;28;20104;-70
2023/03/09 12:17:16;;;;;;;1.23;0.30;;;14.10;99.90;;;;;;5006060;28;20106;-68
2023/03/09 12:19:49;;;;;;;2.05;0.45;;;14.30;99.90;;;;;;4992352;28;20437;-73
2023/03/09 12:22:38;;;;;;;2.30;0.85;;;14.10;99.90;;;;;;4992803;28;20029;-73
2023/03/09 12:25:17;;;;;;;3.10;0.65;;;13.90;99.90;;;;;;5000514;28;20062;-72
2023/03/09 12:27:54;;;;;;;2.03;0.50;;;14.30;99.90;;;;;;4994751;28;20093;-72
2023/03/09 12:30:30;;;;;;;5.05;0.32;;;14.40;99.90;;;;;;4999233;28;20030;-73
2023/03/09 12:33:01;;;;;;;1.55;0.52;;;14.20;99.90;;;;;;4986401;28;20423;-75
2023/03/09 12:35:26;;;;;;;2.58;1.02;;;14.40;99.90;;;;;;4993362;28;20049;-73
2023/03/09 12:38:02;;;;;;;0.80;0.50;;;14.50;99.90;;;;;;4991352;28;20498;-72
2023/03/09 12:40:37;;;;;;;1.85;0.50;;;14.00;99.90;;;;;;4992782;28;20034;-72
2023/03/09 12:43:15;;;;;;;1.75;0.30;;;14.00;99.90;;;;;;4993021;28;20045;-73
2023/03/09 12:45:46;;;;;;;0.20;0.10;;;13.80;99.90;;;;;;4992998;28;20069;-73
2023/03/09 12:48:32;;;;;;;8.82;0.63;;;13.60;99.90;;;;;;4991844;28;20406;-72
2023/03/09 12:51:25;;;;;;;1.75;0.65;;;13.50;99.90;;;;;;5004691;28;20501;-73
2023/03/09 12:54:23;;;;;;;1.75;0.30;;;13.40;99.90;;;;;;4988634;28;20437;-73
2023/03/09 12:56:51;;;;;;;0.10;0.10;;;13.50;99.90;;;;;;4972806;28;20506;-71
2023/03/09 12:59:26;;;;;;;0.35;0.10;;;13.40;99.90;;;;;;4983237;28;20046;-72
2023/03/09 13:01:52;;;;;;;1.20;0.22;;;13.70;99.90;;;;;;4984280;28;20054;-73
2023/03/09 13:04:24;;;;;;;0.95;0.55;;;14.20;99.90;;;;;;4999516;28;20061;-73
2023/03/09 13:06:50;;;;;;;4.07;0.22;;;14.30;99.90;;;;;;4990501;28;20030;-74
2023/03/09 13:09:25;;;;;;;0.00;0.00;;;14.30;99.90;;;;;;4990987;28;20056;-73
2023/03/09 13:11:57;;;;;;;0.20;0.13;;;14.10;99.90;;;;;;4992514;28;20113;-72
2023/03/09 13:14:25;;;;;;;2.38;0.30;;;14.00;99.90;;;;;;4991943;28;20030;-72